sensor_id;sensor_type;location;lat;lon;timestamp;P1;durP1;ratioP1;P2;durP2;ratioP2
10341;SDS011;5216;54.602;18.356;2023-07-09T00:00:55;5.28;;;4.20;;
10341;SDS011;5216;54.602;18.356;2023-07-09T00:03:23;8.05;;;4.38;;
10341;SDS011;5216;54.602;18.356;2023-07-09T00:05:49;6.45;;;4.13;;
10341;SDS011;5216;54.602;18.356;2023-07-09T00:08:27;5.05;;;3.83;;
10341;SDS011;5216;54.602;18.356;2023-07-09T00:10:55;6.05;;;4.15;;
10341;SDS011;5216;54.602;18.356;2023-07-09T00:13:22;5.28;;;3.80;;
10341;SDS011;5216;54.602;18.356;2023-07-09T00:15:50;4.25;;;3.42;;
10341;SDS011;5216;54.602;18.356;2023-07-09T00:18:26;4.70;;;3.75;;
10341;SDS011;5216;54.602;18.356;2023-07-09T00:20:53;4.70;;;3.97;;
10341;SDS011;5216;54.602;18.356;2023-07-09T00:23:19;4.45;;;3.47;;
10341;SDS011;5216;54.602;18.356;2023-07-09T00:25:46;4.68;;;3.60;;
10341;SDS011;5216;54.602;18.356;2023-07-09T00:28:14;5.40;;;3.95;;
10341;SDS011;5216;54.602;18.356;2023-07-09T00:30:41;4.35;;;3.45;;
10341;SDS011;5216;54.602;18.356;2023-07-09T00:33:10;3.85;;;3.38;;
10341;SDS011;5216;54.602;18.356;2023-07-09T00:35:37;4.55;;;3.67;;
10341;SDS011;5216;54.602;18.356;2023-07-09T00:38:08;4.65;;;4.20;;
10341;SDS011;5216;54.602;18.356;2023-07-09T00:40:43;5.00;;;3.60;;
10341;SDS011;5216;54.602;18.356;2023-07-09T00:43:12;4.65;;;3.83;;
10341;SDS011;5216;54.602;18.356;2023-07-09T00:45:41;6.88;;;3.70;;
10341;SDS011;5216;54.602;18.356;2023-07-09T00:48:09;8.27;;;4.32;;
10341;SDS011;5216;54.602;18.356;2023-07-09T00:50:46;5.00;;;4.20;;
10341;SDS011;5216;54.602;18.356;2023-07-09T00:55:46;5.13;;;4.57;;
10341;SDS011;5216;54.602;18.356;2023-07-09T00:58:16;5.75;;;4.47;;
10341;SDS011;5216;54.602;18.356;2023-07-09T01:00:46;7.00;;;4.40;;
10341;SDS011;5216;54.602;18.356;2023-07-09T01:03:20;5.53;;;4.10;;
10341;SDS011;5216;54.602;18.356;2023-07-09T01:05:47;5.18;;;4.20;;
10341;SDS011;5216;54.602;18.356;2023-07-09T01:08:18;5.90;;;4.35;;
10341;SDS011;5216;54.602;18.356;2023-07-09T01:10:46;4.60;;;4.00;;
10341;SDS011;5216;54.602;18.356;2023-07-09T01:13:13;6.90;;;4.30;;
10341;SDS011;5216;54.602;18.356;2023-07-09T01:15:40;4.63;;;3.88;;
10341;SDS011;5216;54.602;18.356;2023-07-09T01:18:07;6.13;;;4.43;;
10341;SDS011;5216;54.602;18.356;2023-07-09T01:20:38;4.60;;;3.78;;
10341;SDS011;5216;54.602;18.356;2023-07-09T01:23:05;4.45;;;3.97;;
10341;SDS011;5216;54.602;18.356;2023-07-09T01:25:32;4.65;;;4.05;;
10341;SDS011;5216;54.602;18.356;2023-07-09T01:28:14;5.15;;;4.40;;
10341;SDS011;5216;54.602;18.356;2023-07-09T01:30:46;4.80;;;4.30;;
10341;SDS011;5216;54.602;18.356;2023-07-09T01:33:12;5.90;;;4.50;;
10341;SDS011;5216;54.602;18.356;2023-07-09T01:35:39;6.22;;;4.50;;
10341;SDS011;5216;54.602;18.356;2023-07-09T01:38:09;5.72;;;4.43;;
10341;SDS011;5216;54.602;18.356;2023-07-09T01:40:36;5.10;;;4.55;;
10341;SDS011;5216;54.602;18.356;2023-07-09T01:43:05;6.93;;;4.88;;
10341;SDS011;5216;54.602;18.356;2023-07-09T01:45:33;7.88;;;4.60;;
10341;SDS011;5216;54.602;18.356;2023-07-09T01:48:01;7.22;;;4.80;;
10341;SDS011;5216;54.602;18.356;2023-07-09T01:50:28;5.78;;;4.75;;
10341;SDS011;5216;54.602;18.356;2023-07-09T01:52:55;5.13;;;4.47;;
10341;SDS011;5216;54.602;18.356;2023-07-09T01:55:22;6.57;;;4.60;;
10341;SDS011;5216;54.602;18.356;2023-07-09T01:57:49;5.07;;;4.57;;
10341;SDS011;5216;54.602;18.356;2023-07-09T02:00:18;5.40;;;4.47;;
10341;SDS011;5216;54.602;18.356;2023-07-09T02:02:45;6.47;;;4.88;;
10341;SDS011;5216;54.602;18.356;2023-07-09T02:05:14;4.90;;;4.40;;
10341;SDS011;5216;54.602;18.356;2023-07-09T02:07:41;5.30;;;4.50;;
10341;SDS011;5216;54.602;18.356;2023-07-09T02:10:12;6.68;;;4.50;;
10341;SDS011;5216;54.602;18.356;2023-07-09T02:12:45;5.60;;;4.47;;
10341;SDS011;5216;54.602;18.356;2023-07-09T02:15:12;5.97;;;4.65;;
10341;SDS011;5216;54.602;18.356;2023-07-09T02:17:38;6.10;;;4.68;;
10341;SDS011;5216;54.602;18.356;2023-07-09T02:20:08;6.97;;;4.72;;
10341;SDS011;5216;54.602;18.356;2023-07-09T02:22:37;5.32;;;4.75;;
10341;SDS011;5216;54.602;18.356;2023-07-09T02:25:05;6.18;;;5.22;;
10341;SDS011;5216;54.602;18.356;2023-07-09T02:27:35;5.78;;;4.47;;
10341;SDS011;5216;54.602;18.356;2023-07-09T02:30:03;6.88;;;5.18;;
10341;SDS011;5216;54.602;18.356;2023-07-09T02:32:29;5.38;;;4.50;;
10341;SDS011;5216;54.602;18.356;2023-07-09T02:34:56;7.18;;;5.00;;
10341;SDS011;5216;54.602;18.356;2023-07-09T02:37:35;5.68;;;4.90;;
10341;SDS011;5216;54.602;18.356;2023-07-09T02:40:03;6.15;;;4.75;;
10341;SDS011;5216;54.602;18.356;2023-07-09T02:42:42;5.60;;;4.85;;
10341;SDS011;5216;54.602;18.356;2023-07-09T02:45:09;5.50;;;4.15;;
10341;SDS011;5216;54.602;18.356;2023-07-09T02:47:36;8.23;;;4.72;;
10341;SDS011;5216;54.602;18.356;2023-07-09T02:50:03;5.63;;;4.70;;
10341;SDS011;5216;54.602;18.356;2023-07-09T02:52:30;6.05;;;4.40;;
10341;SDS011;5216;54.602;18.356;2023-07-09T02:54:57;5.57;;;4.43;;
10341;SDS011;5216;54.602;18.356;2023-07-09T02:57:23;5.90;;;4.50;;
10341;SDS011;5216;54.602;18.356;2023-07-09T02:59:50;4.45;;;3.92;;
10341;SDS011;5216;54.602;18.356;2023-07-09T03:02:28;5.72;;;4.82;;
10341;SDS011;5216;54.602;18.356;2023-07-09T03:04:55;5.97;;;4.90;;
10341;SDS011;5216;54.602;18.356;2023-07-09T03:07:21;6.13;;;4.30;;
10341;SDS011;5216;54.602;18.356;2023-07-09T03:09:48;6.15;;;4.63;;
10341;SDS011;5216;54.602;18.356;2023-07-09T03:12:15;6.00;;;4.25;;
10341;SDS011;5216;54.602;18.356;2023-07-09T03:14:41;5.10;;;4.57;;
10341;SDS011;5216;54.602;18.356;2023-07-09T03:17:09;7.03;;;6.03;;
10341;SDS011;5216;54.602;18.356;2023-07-09T03:19:35;6.57;;;5.55;;
10341;SDS011;5216;54.602;18.356;2023-07-09T03:22:02;6.65;;;4.63;;
10341;SDS011;5216;54.602;18.356;2023-07-09T03:24:29;7.55;;;4.70;;
10341;SDS011;5216;54.602;18.356;2023-07-09T03:26:56;6.57;;;4.47;;
10341;SDS011;5216;54.602;18.356;2023-07-09T03:29:23;6.15;;;4.30;;
10341;SDS011;5216;54.602;18.356;2023-07-09T03:31:49;4.68;;;4.00;;
10341;SDS011;5216;54.602;18.356;2023-07-09T03:34:16;6.05;;;4.05;;
10341;SDS011;5216;54.602;18.356;2023-07-09T03:36:43;4.65;;;3.80;;
10341;SDS011;5216;54.602;18.356;2023-07-09T03:39:10;5.55;;;4.35;;
10341;SDS011;5216;54.602;18.356;2023-07-09T03:41:36;5.97;;;4.43;;
10341;SDS011;5216;54.602;18.356;2023-07-09T03:44:03;4.68;;;4.18;;
10341;SDS011;5216;54.602;18.356;2023-07-09T03:46:30;5.93;;;4.00;;
10341;SDS011;5216;54.602;18.356;2023-07-09T03:48:58;5.20;;;4.20;;
10341;SDS011;5216;54.602;18.356;2023-07-09T03:51:24;4.88;;;4.30;;
10341;SDS011;5216;54.602;18.356;2023-07-09T03:53:51;6.45;;;4.47;;
10341;SDS011;5216;54.602;18.356;2023-07-09T03:56:18;5.28;;;4.07;;
10341;SDS011;5216;54.602;18.356;2023-07-09T03:58:44;4.63;;;4.13;;
10341;SDS011;5216;54.602;18.356;2023-07-09T04:01:14;4.80;;;3.75;;
10341;SDS011;5216;54.602;18.356;2023-07-09T04:03:58;5.18;;;3.85;;
10341;SDS011;5216;54.602;18.356;2023-07-09T04:06:24;4.00;;;3.60;;
10341;SDS011;5216;54.602;18.356;2023-07-09T04:08:51;9.38;;;4.13;;
10341;SDS011;5216;54.602;18.356;2023-07-09T04:11:19;5.25;;;3.97;;
10341;SDS011;5216;54.602;18.356;2023-07-09T04:13:45;5.68;;;4.25;;
10341;SDS011;5216;54.602;18.356;2023-07-09T04:16:12;4.50;;;3.80;;
10341;SDS011;5216;54.602;18.356;2023-07-09T04:18:39;6.18;;;4.25;;
10341;SDS011;5216;54.602;18.356;2023-07-09T04:21:05;5.35;;;4.25;;
10341;SDS011;5216;54.602;18.356;2023-07-09T04:23:32;6.03;;;5.15;;
10341;SDS011;5216;54.602;18.356;2023-07-09T04:25:58;7.20;;;5.28;;
10341;SDS011;5216;54.602;18.356;2023-07-09T04:28:30;6.07;;;4.73;;
10341;SDS011;5216;54.602;18.356;2023-07-09T04:30:57;4.93;;;4.40;;
10341;SDS011;5216;54.602;18.356;2023-07-09T04:33:24;6.30;;;5.03;;
10341;SDS011;5216;54.602;18.356;2023-07-09T04:35:50;6.28;;;5.00;;
10341;SDS011;5216;54.602;18.356;2023-07-09T04:38:17;5.57;;;4.65;;
10341;SDS011;5216;54.602;18.356;2023-07-09T04:40:44;6.35;;;4.80;;
10341;SDS011;5216;54.602;18.356;2023-07-09T04:43:11;8.13;;;5.40;;
10341;SDS011;5216;54.602;18.356;2023-07-09T04:45:38;5.40;;;4.70;;
10341;SDS011;5216;54.602;18.356;2023-07-09T04:48:04;5.22;;;4.72;;
10341;SDS011;5216;54.602;18.356;2023-07-09T04:50:31;7.55;;;4.78;;
10341;SDS011;5216;54.602;18.356;2023-07-09T04:52:58;5.50;;;4.45;;
10341;SDS011;5216;54.602;18.356;2023-07-09T04:55:25;5.35;;;4.85;;
10341;SDS011;5216;54.602;18.356;2023-07-09T04:57:53;6.03;;;4.90;;
10341;SDS011;5216;54.602;18.356;2023-07-09T05:00:19;8.18;;;4.38;;
10341;SDS011;5216;54.602;18.356;2023-07-09T05:02:46;6.18;;;4.82;;
10341;SDS011;5216;54.602;18.356;2023-07-09T05:05:12;4.88;;;4.38;;
10341;SDS011;5216;54.602;18.356;2023-07-09T05:07:39;5.97;;;4.80;;
10341;SDS011;5216;54.602;18.356;2023-07-09T05:10:06;4.80;;;4.40;;
10341;SDS011;5216;54.602;18.356;2023-07-09T05:12:33;5.28;;;4.43;;
10341;SDS011;5216;54.602;18.356;2023-07-09T05:14:59;5.40;;;4.60;;
10341;SDS011;5216;54.602;18.356;2023-07-09T05:17:26;5.97;;;4.38;;
10341;SDS011;5216;54.602;18.356;2023-07-09T05:19:53;5.93;;;4.25;;
10341;SDS011;5216;54.602;18.356;2023-07-09T05:22:20;7.00;;;4.15;;
10341;SDS011;5216;54.602;18.356;2023-07-09T05:24:46;4.88;;;4.30;;
10341;SDS011;5216;54.602;18.356;2023-07-09T05:27:13;5.53;;;4.30;;
10341;SDS011;5216;54.602;18.356;2023-07-09T05:29:40;6.82;;;4.35;;
10341;SDS011;5216;54.602;18.356;2023-07-09T05:32:06;5.43;;;4.18;;
10341;SDS011;5216;54.602;18.356;2023-07-09T05:34:33;5.90;;;4.10;;
10341;SDS011;5216;54.602;18.356;2023-07-09T05:36:59;4.65;;;4.00;;
10341;SDS011;5216;54.602;18.356;2023-07-09T05:39:27;8.25;;;4.07;;
10341;SDS011;5216;54.602;18.356;2023-07-09T05:41:53;5.00;;;4.35;;
10341;SDS011;5216;54.602;18.356;2023-07-09T05:44:20;5.20;;;3.83;;
10341;SDS011;5216;54.602;18.356;2023-07-09T05:46:47;6.50;;;3.95;;
10341;SDS011;5216;54.602;18.356;2023-07-09T05:49:13;4.50;;;3.47;;
10341;SDS011;5216;54.602;18.356;2023-07-09T05:51:40;5.35;;;3.33;;
10341;SDS011;5216;54.602;18.356;2023-07-09T05:54:06;3.67;;;3.10;;
10341;SDS011;5216;54.602;18.356;2023-07-09T05:56:33;4.43;;;3.30;;
10341;SDS011;5216;54.602;18.356;2023-07-09T05:59:00;6.03;;;3.28;;
10341;SDS011;5216;54.602;18.356;2023-07-09T06:01:27;5.10;;;2.80;;
10341;SDS011;5216;54.602;18.356;2023-07-09T06:03:53;4.05;;;3.67;;
10341;SDS011;5216;54.602;18.356;2023-07-09T06:06:21;4.78;;;3.10;;
10341;SDS011;5216;54.602;18.356;2023-07-09T06:08:48;6.68;;;3.53;;
10341;SDS011;5216;54.602;18.356;2023-07-09T06:11:16;5.38;;;3.83;;
10341;SDS011;5216;54.602;18.356;2023-07-09T06:13:44;4.07;;;3.17;;
10341;SDS011;5216;54.602;18.356;2023-07-09T06:16:10;4.68;;;3.47;;
10341;SDS011;5216;54.602;18.356;2023-07-09T06:18:37;5.50;;;3.65;;
10341;SDS011;5216;54.602;18.356;2023-07-09T06:21:04;3.67;;;2.90;;
10341;SDS011;5216;54.602;18.356;2023-07-09T06:23:31;3.60;;;2.83;;
10341;SDS011;5216;54.602;18.356;2023-07-09T06:25:58;4.78;;;2.88;;
10341;SDS011;5216;54.602;18.356;2023-07-09T06:28:26;4.20;;;2.63;;
10341;SDS011;5216;54.602;18.356;2023-07-09T06:30:52;4.20;;;2.90;;
10341;SDS011;5216;54.602;18.356;2023-07-09T06:33:38;4.18;;;2.45;;
10341;SDS011;5216;54.602;18.356;2023-07-09T06:36:04;4.47;;;2.53;;
10341;SDS011;5216;54.602;18.356;2023-07-09T06:38:32;3.20;;;2.50;;
10341;SDS011;5216;54.602;18.356;2023-07-09T06:41:00;3.70;;;2.80;;
10341;SDS011;5216;54.602;18.356;2023-07-09T06:43:28;5.03;;;2.95;;
10341;SDS011;5216;54.602;18.356;2023-07-09T06:45:57;4.35;;;2.50;;
10341;SDS011;5216;54.602;18.356;2023-07-09T06:48:33;4.07;;;2.47;;
10341;SDS011;5216;54.602;18.356;2023-07-09T06:51:04;2.78;;;2.13;;
10341;SDS011;5216;54.602;18.356;2023-07-09T06:53:31;3.65;;;2.00;;
10341;SDS011;5216;54.602;18.356;2023-07-09T06:55:57;2.35;;;1.70;;
10341;SDS011;5216;54.602;18.356;2023-07-09T06:58:28;4.45;;;2.17;;
10341;SDS011;5216;54.602;18.356;2023-07-09T07:00:55;2.97;;;2.45;;
10341;SDS011;5216;54.602;18.356;2023-07-09T07:03:22;3.00;;;1.95;;
10341;SDS011;5216;54.602;18.356;2023-07-09T07:05:50;3.13;;;1.80;;
10341;SDS011;5216;54.602;18.356;2023-07-09T07:08:18;4.43;;;1.95;;
10341;SDS011;5216;54.602;18.356;2023-07-09T07:10:45;3.00;;;1.90;;
10341;SDS011;5216;54.602;18.356;2023-07-09T07:13:13;1.95;;;1.75;;
10341;SDS011;5216;54.602;18.356;2023-07-09T07:15:40;2.38;;;1.80;;
10341;SDS011;5216;54.602;18.356;2023-07-09T07:18:07;2.05;;;1.65;;
10341;SDS011;5216;54.602;18.356;2023-07-09T07:20:33;2.58;;;1.90;;
10341;SDS011;5216;54.602;18.356;2023-07-09T07:23:00;2.15;;;1.63;;
10341;SDS011;5216;54.602;18.356;2023-07-09T07:25:27;2.00;;;1.75;;
10341;SDS011;5216;54.602;18.356;2023-07-09T07:27:53;1.90;;;1.60;;
10341;SDS011;5216;54.602;18.356;2023-07-09T07:30:20;2.20;;;1.52;;
10341;SDS011;5216;54.602;18.356;2023-07-09T07:32:50;3.45;;;1.63;;
10341;SDS011;5216;54.602;18.356;2023-07-09T07:35:17;2.63;;;2.03;;
10341;SDS011;5216;54.602;18.356;2023-07-09T07:37:45;4.50;;;2.20;;
10341;SDS011;5216;54.602;18.356;2023-07-09T07:40:12;2.45;;;1.60;;
10341;SDS011;5216;54.602;18.356;2023-07-09T07:42:39;1.50;;;1.30;;
10341;SDS011;5216;54.602;18.356;2023-07-09T07:45:05;1.48;;;1.23;;
10341;SDS011;5216;54.602;18.356;2023-07-09T07:47:33;2.03;;;1.40;;
10341;SDS011;5216;54.602;18.356;2023-07-09T07:50:03;1.58;;;1.42;;
10341;SDS011;5216;54.602;18.356;2023-07-09T07:52:30;1.85;;;1.30;;
10341;SDS011;5216;54.602;18.356;2023-07-09T07:54:57;2.53;;;1.40;;
10341;SDS011;5216;54.602;18.356;2023-07-09T07:57:26;2.67;;;1.85;;
10341;SDS011;5216;54.602;18.356;2023-07-09T07:59:53;1.80;;;1.60;;
10341;SDS011;5216;54.602;18.356;2023-07-09T08:02:20;3.58;;;1.75;;
10341;SDS011;5216;54.602;18.356;2023-07-09T08:04:47;2.53;;;2.10;;
10341;SDS011;5216;54.602;18.356;2023-07-09T08:07:13;1.90;;;1.70;;
10341;SDS011;5216;54.602;18.356;2023-07-09T08:09:40;2.05;;;1.80;;
10341;SDS011;5216;54.602;18.356;2023-07-09T08:12:07;2.72;;;1.95;;
10341;SDS011;5216;54.602;18.356;2023-07-09T08:14:42;2.17;;;1.85;;
10341;SDS011;5216;54.602;18.356;2023-07-09T08:17:08;1.80;;;1.50;;
10341;SDS011;5216;54.602;18.356;2023-07-09T08:19:45;2.55;;;1.50;;
10341;SDS011;5216;54.602;18.356;2023-07-09T08:22:12;1.75;;;1.63;;
10341;SDS011;5216;54.602;18.356;2023-07-09T08:24:39;2.00;;;1.80;;
10341;SDS011;5216;54.602;18.356;2023-07-09T08:27:06;1.98;;;1.70;;
10341;SDS011;5216;54.602;18.356;2023-07-09T08:29:33;1.85;;;1.70;;
10341;SDS011;5216;54.602;18.356;2023-07-09T08:32:01;2.03;;;1.70;;
10341;SDS011;5216;54.602;18.356;2023-07-09T08:34:28;1.52;;;1.40;;
10341;SDS011;5216;54.602;18.356;2023-07-09T08:36:54;1.83;;;1.73;;
10341;SDS011;5216;54.602;18.356;2023-07-09T08:39:21;2.20;;;1.70;;
10341;SDS011;5216;54.602;18.356;2023-07-09T08:41:48;3.67;;;1.55;;
10341;SDS011;5216;54.602;18.356;2023-07-09T08:49:50;3.00;;;1.70;;
10341;SDS011;5216;54.602;18.356;2023-07-09T08:52:39;2.20;;;1.60;;
10341;SDS011;5216;54.602;18.356;2023-07-09T08:55:06;3.30;;;2.58;;
10341;SDS011;5216;54.602;18.356;2023-07-09T08:57:37;2.20;;;1.70;;
10341;SDS011;5216;54.602;18.356;2023-07-09T09:00:15;1.80;;;1.60;;
10341;SDS011;5216;54.602;18.356;2023-07-09T09:02:54;3.47;;;1.85;;
10341;SDS011;5216;54.602;18.356;2023-07-09T09:05:23;2.50;;;1.80;;
10341;SDS011;5216;54.602;18.356;2023-07-09T09:08:18;2.15;;;1.95;;
10341;SDS011;5216;54.602;18.356;2023-07-09T09:10:43;1.90;;;1.60;;
10341;SDS011;5216;54.602;18.356;2023-07-09T09:13:11;3.28;;;1.80;;
10341;SDS011;5216;54.602;18.356;2023-07-09T09:15:39;2.65;;;1.92;;
10341;SDS011;5216;54.602;18.356;2023-07-09T09:18:16;2.05;;;1.85;;
10341;SDS011;5216;54.602;18.356;2023-07-09T09:20:52;3.03;;;2.40;;
10341;SDS011;5216;54.602;18.356;2023-07-09T09:23:19;3.10;;;2.28;;
10341;SDS011;5216;54.602;18.356;2023-07-09T09:25:48;2.30;;;2.10;;
10341;SDS011;5216;54.602;18.356;2023-07-09T09:28:29;4.18;;;2.35;;
10341;SDS011;5216;54.602;18.356;2023-07-09T09:31:01;4.82;;;3.08;;
10341;SDS011;5216;54.602;18.356;2023-07-09T09:33:41;3.05;;;2.10;;
10341;SDS011;5216;54.602;18.356;2023-07-09T09:36:22;2.75;;;1.60;;
10341;SDS011;5216;54.602;18.356;2023-07-09T09:38:49;3.53;;;2.30;;
10341;SDS011;5216;54.602;18.356;2023-07-09T09:41:18;2.92;;;2.28;;
10341;SDS011;5216;54.602;18.356;2023-07-09T09:43:46;2.28;;;1.85;;
10341;SDS011;5216;54.602;18.356;2023-07-09T09:46:23;2.25;;;1.80;;
10341;SDS011;5216;54.602;18.356;2023-07-09T09:48:50;2.95;;;1.80;;
10341;SDS011;5216;54.602;18.356;2023-07-09T09:51:17;1.92;;;1.73;;
10341;SDS011;5216;54.602;18.356;2023-07-09T09:53:48;4.28;;;1.70;;
10341;SDS011;5216;54.602;18.356;2023-07-09T09:56:17;1.83;;;1.50;;
10341;SDS011;5216;54.602;18.356;2023-07-09T09:58:44;2.28;;;1.60;;
10341;SDS011;5216;54.602;18.356;2023-07-09T10:01:13;3.15;;;1.80;;
10341;SDS011;5216;54.602;18.356;2023-07-09T10:03:41;2.38;;;1.58;;
10341;SDS011;5216;54.602;18.356;2023-07-09T10:06:18;1.83;;;1.42;;
10341;SDS011;5216;54.602;18.356;2023-07-09T10:08:56;2.42;;;1.42;;
10341;SDS011;5216;54.602;18.356;2023-07-09T10:11:34;2.80;;;2.10;;
10341;SDS011;5216;54.602;18.356;2023-07-09T10:14:09;3.33;;;1.70;;
10341;SDS011;5216;54.602;18.356;2023-07-09T10:16:43;3.00;;;1.80;;
10341;SDS011;5216;54.602;18.356;2023-07-09T10:29:52;2.40;;;1.75;;
10341;SDS011;5216;54.602;18.356;2023-07-09T10:35:32;2.42;;;1.70;;
10341;SDS011;5216;54.602;18.356;2023-07-09T10:41:04;1.85;;;1.60;;
10341;SDS011;5216;54.602;18.356;2023-07-09T10:43:57;2.25;;;1.55;;
10341;SDS011;5216;54.602;18.356;2023-07-09T10:46:25;2.65;;;1.70;;
10341;SDS011;5216;54.602;18.356;2023-07-09T10:48:54;2.25;;;1.80;;
10341;SDS011;5216;54.602;18.356;2023-07-09T10:56:51;3.40;;;1.40;;
10341;SDS011;5216;54.602;18.356;2023-07-09T10:59:24;1.60;;;1.20;;
10341;SDS011;5216;54.602;18.356;2023-07-09T11:01:57;2.72;;;1.50;;
10341;SDS011;5216;54.602;18.356;2023-07-09T11:04:40;1.90;;;1.30;;
10341;SDS011;5216;54.602;18.356;2023-07-09T11:07:15;1.40;;;1.30;;
10341;SDS011;5216;54.602;18.356;2023-07-09T11:09:44;2.08;;;1.63;;
10341;SDS011;5216;54.602;18.356;2023-07-09T11:12:20;2.55;;;1.33;;
10341;SDS011;5216;54.602;18.356;2023-07-09T11:14:53;4.07;;;1.50;;
10341;SDS011;5216;54.602;18.356;2023-07-09T11:17:22;2.13;;;1.40;;
10341;SDS011;5216;54.602;18.356;2023-07-09T11:19:53;1.60;;;1.30;;
10341;SDS011;5216;54.602;18.356;2023-07-09T11:22:21;1.50;;;1.27;;
10341;SDS011;5216;54.602;18.356;2023-07-09T11:24:49;1.83;;;1.33;;
10341;SDS011;5216;54.602;18.356;2023-07-09T11:27:21;1.77;;;1.40;;
10341;SDS011;5216;54.602;18.356;2023-07-09T11:29:56;3.22;;;1.45;;
10341;SDS011;5216;54.602;18.356;2023-07-09T11:32:25;3.65;;;1.67;;
10341;SDS011;5216;54.602;18.356;2023-07-09T11:34:52;2.20;;;1.63;;
10341;SDS011;5216;54.602;18.356;2023-07-09T11:37:20;3.05;;;2.00;;
10341;SDS011;5216;54.602;18.356;2023-07-09T11:39:49;2.65;;;1.85;;
10341;SDS011;5216;54.602;18.356;2023-07-09T11:44:54;3.60;;;1.90;;
10341;SDS011;5216;54.602;18.356;2023-07-09T11:47:34;2.45;;;1.98;;
10341;SDS011;5216;54.602;18.356;2023-07-09T11:50:26;2.38;;;1.80;;
10341;SDS011;5216;54.602;18.356;2023-07-09T11:52:58;2.35;;;2.08;;
10341;SDS011;5216;54.602;18.356;2023-07-09T11:55:28;2.33;;;1.63;;
10341;SDS011;5216;54.602;18.356;2023-07-09T11:57:56;3.67;;;2.00;;
10341;SDS011;5216;54.602;18.356;2023-07-09T12:00:24;4.13;;;1.80;;
10341;SDS011;5216;54.602;18.356;2023-07-09T12:02:51;2.83;;;1.90;;
10341;SDS011;5216;54.602;18.356;2023-07-09T12:05:19;3.35;;;2.00;;
10341;SDS011;5216;54.602;18.356;2023-07-09T12:07:46;4.15;;;2.03;;
10341;SDS011;5216;54.602;18.356;2023-07-09T12:10:18;8.15;;;2.50;;
10341;SDS011;5216;54.602;18.356;2023-07-09T12:12:45;7.70;;;6.35;;
10341;SDS011;5216;54.602;18.356;2023-07-09T12:15:15;2.65;;;2.13;;
10341;SDS011;5216;54.602;18.356;2023-07-09T12:17:43;2.47;;;1.70;;
10341;SDS011;5216;54.602;18.356;2023-07-09T12:20:18;2.75;;;2.00;;
10341;SDS011;5216;54.602;18.356;2023-07-09T12:22:45;2.50;;;1.92;;
10341;SDS011;5216;54.602;18.356;2023-07-09T12:28:11;2.38;;;1.70;;
10341;SDS011;5216;54.602;18.356;2023-07-09T12:30:39;2.67;;;1.73;;
10341;SDS011;5216;54.602;18.356;2023-07-09T12:33:12;8.98;;;2.05;;
10341;SDS011;5216;54.602;18.356;2023-07-09T12:35:42;2.25;;;1.88;;
10341;SDS011;5216;54.602;18.356;2023-07-09T12:38:18;2.78;;;1.80;;
10341;SDS011;5216;54.602;18.356;2023-07-09T12:40:47;2.22;;;1.80;;
10341;SDS011;5216;54.602;18.356;2023-07-09T12:43:16;2.08;;;1.70;;
10341;SDS011;5216;54.602;18.356;2023-07-09T12:45:43;2.28;;;1.70;;
10341;SDS011;5216;54.602;18.356;2023-07-09T12:48:10;3.15;;;1.73;;
10341;SDS011;5216;54.602;18.356;2023-07-09T12:50:38;3.63;;;2.03;;
10341;SDS011;5216;54.602;18.356;2023-07-09T12:53:13;2.22;;;1.88;;
10341;SDS011;5216;54.602;18.356;2023-07-09T12:55:40;3.15;;;1.90;;
10341;SDS011;5216;54.602;18.356;2023-07-09T12:58:11;2.97;;;1.90;;
10341;SDS011;5216;54.602;18.356;2023-07-09T13:00:41;3.35;;;1.88;;
10341;SDS011;5216;54.602;18.356;2023-07-09T13:03:12;3.72;;;1.73;;
10341;SDS011;5216;54.602;18.356;2023-07-09T13:05:39;2.30;;;1.92;;
10341;SDS011;5216;54.602;18.356;2023-07-09T13:08:16;3.10;;;2.05;;
10341;SDS011;5216;54.602;18.356;2023-07-09T13:10:43;2.35;;;1.85;;
10341;SDS011;5216;54.602;18.356;2023-07-09T13:13:10;2.53;;;1.65;;
10341;SDS011;5216;54.602;18.356;2023-07-09T13:15:47;2.00;;;1.80;;
10341;SDS011;5216;54.602;18.356;2023-07-09T13:18:17;2.78;;;1.65;;
10341;SDS011;5216;54.602;18.356;2023-07-09T13:20:44;6.03;;;2.20;;
10341;SDS011;5216;54.602;18.356;2023-07-09T13:23:21;2.95;;;1.92;;
10341;SDS011;5216;54.602;18.356;2023-07-09T13:25:48;2.45;;;1.92;;
10341;SDS011;5216;54.602;18.356;2023-07-09T13:30:44;4.95;;;1.95;;
10341;SDS011;5216;54.602;18.356;2023-07-09T13:33:11;2.75;;;1.75;;
10341;SDS011;5216;54.602;18.356;2023-07-09T13:35:37;2.50;;;1.90;;
10341;SDS011;5216;54.602;18.356;2023-07-09T13:38:14;2.42;;;1.75;;
10341;SDS011;5216;54.602;18.356;2023-07-09T13:40:43;6.68;;;1.95;;
10341;SDS011;5216;54.602;18.356;2023-07-09T13:43:11;4.07;;;2.00;;
10341;SDS011;5216;54.602;18.356;2023-07-09T13:45:38;2.67;;;1.75;;
10341;SDS011;5216;54.602;18.356;2023-07-09T13:48:13;3.00;;;1.75;;
10341;SDS011;5216;54.602;18.356;2023-07-09T13:50:40;3.58;;;1.80;;
10341;SDS011;5216;54.602;18.356;2023-07-09T13:53:15;2.85;;;2.55;;
10341;SDS011;5216;54.602;18.356;2023-07-09T13:55:42;3.38;;;1.65;;
10341;SDS011;5216;54.602;18.356;2023-07-09T13:58:10;2.17;;;1.65;;
10341;SDS011;5216;54.602;18.356;2023-07-09T14:00:37;3.25;;;1.95;;
10341;SDS011;5216;54.602;18.356;2023-07-09T14:03:07;2.85;;;1.80;;
10341;SDS011;5216;54.602;18.356;2023-07-09T14:05:35;2.28;;;1.70;;
10341;SDS011;5216;54.602;18.356;2023-07-09T14:08:02;2.08;;;1.63;;
10341;SDS011;5216;54.602;18.356;2023-07-09T14:10:29;5.22;;;1.70;;
10341;SDS011;5216;54.602;18.356;2023-07-09T14:12:55;3.28;;;1.70;;
10341;SDS011;5216;54.602;18.356;2023-07-09T14:15:23;2.55;;;1.50;;
10341;SDS011;5216;54.602;18.356;2023-07-09T14:17:49;1.60;;;1.45;;
10341;SDS011;5216;54.602;18.356;2023-07-09T14:20:18;1.95;;;1.67;;
10341;SDS011;5216;54.602;18.356;2023-07-09T14:22:47;2.50;;;1.65;;
10341;SDS011;5216;54.602;18.356;2023-07-09T14:25:18;2.53;;;1.90;;
10341;SDS011;5216;54.602;18.356;2023-07-09T14:27:45;2.05;;;1.58;;
10341;SDS011;5216;54.602;18.356;2023-07-09T14:30:16;4.70;;;3.13;;
10341;SDS011;5216;54.602;18.356;2023-07-09T14:32:44;1.95;;;1.48;;
10341;SDS011;5216;54.602;18.356;2023-07-09T14:35:12;2.55;;;1.80;;
10341;SDS011;5216;54.602;18.356;2023-07-09T14:37:39;3.42;;;1.83;;
10341;SDS011;5216;54.602;18.356;2023-07-09T14:40:06;5.20;;;1.80;;
10341;SDS011;5216;54.602;18.356;2023-07-09T14:42:33;7.75;;;1.70;;
10341;SDS011;5216;54.602;18.356;2023-07-09T14:44:59;2.63;;;1.80;;
10341;SDS011;5216;54.602;18.356;2023-07-09T14:47:26;3.85;;;1.58;;
10341;SDS011;5216;54.602;18.356;2023-07-09T14:49:54;1.83;;;1.50;;
10341;SDS011;5216;54.602;18.356;2023-07-09T14:52:22;3.15;;;1.40;;
10341;SDS011;5216;54.602;18.356;2023-07-09T14:54:49;1.83;;;1.50;;
10341;SDS011;5216;54.602;18.356;2023-07-09T14:57:26;1.60;;;1.33;;
10341;SDS011;5216;54.602;18.356;2023-07-09T14:59:53;3.45;;;1.60;;
10341;SDS011;5216;54.602;18.356;2023-07-09T15:02:31;3.25;;;1.80;;
10341;SDS011;5216;54.602;18.356;2023-07-09T15:05:00;2.95;;;1.80;;
10341;SDS011;5216;54.602;18.356;2023-07-09T15:07:26;2.15;;;1.58;;
10341;SDS011;5216;54.602;18.356;2023-07-09T15:09:56;1.85;;;1.55;;
10341;SDS011;5216;54.602;18.356;2023-07-09T15:12:28;1.80;;;1.70;;
10341;SDS011;5216;54.602;18.356;2023-07-09T15:14:59;2.63;;;1.70;;
10341;SDS011;5216;54.602;18.356;2023-07-09T15:17:27;2.72;;;1.65;;
10341;SDS011;5216;54.602;18.356;2023-07-09T15:19:53;3.90;;;1.55;;
10341;SDS011;5216;54.602;18.356;2023-07-09T15:26:01;2.35;;;1.45;;
10341;SDS011;5216;54.602;18.356;2023-07-09T15:28:28;2.05;;;1.73;;
10341;SDS011;5216;54.602;18.356;2023-07-09T15:30:54;2.38;;;1.63;;
10341;SDS011;5216;54.602;18.356;2023-07-09T15:33:21;4.13;;;1.92;;
10341;SDS011;5216;54.602;18.356;2023-07-09T15:35:48;2.50;;;1.63;;
10341;SDS011;5216;54.602;18.356;2023-07-09T15:38:21;4.60;;;1.88;;
10341;SDS011;5216;54.602;18.356;2023-07-09T15:40:51;1.92;;;1.50;;